Time;durP1;ratioP1;P1;durP2;ratioP2;P2;SDS_P1;SDS_P2;PMS_P1;PMS_P2;Temp;Humidity;BMP_temperature;BMP_pressure;BME280_temperature;BME280_humidity;BME280_pressure;Samples;Min_cycle;Max_cycle;Signal;HPM_P1;HPM_P2
2022/01/19 00:01:49;;;;;;;2.75;2.20;;;17.90;53.30;;;;;;5003906;28;20061;-62
2022/01/19 00:04:15;;;;;;;5.20;3.00;;;17.90;53.30;;;;;;4999790;28;20034;-62
2022/01/19 00:06:40;;;;;;;2.53;2.13;;;17.90;53.30;;;;;;4998258;28;20018;-62
2022/01/19 00:09:05;;;;;;;4.57;2.50;;;17.90;53.30;;;;;;4992692;28;20037;-62
2022/01/19 00:11:31;;;;;;;4.35;2.53;;;17.90;53.30;;;;;;5004368;28;20560;-61
2022/01/19 00:13:57;;;;;;;3.33;2.40;;;17.90;53.30;;;;;;5002196;28;20045;-62
2022/01/19 00:16:22;;;;;;;3.03;2.20;;;17.90;53.20;;;;;;5002711;28;20109;-62
2022/01/19 00:18:47;;;;;;;2.92;2.40;;;17.90;53.20;;;;;;4996767;28;20026;-62
2022/01/19 00:21:13;;;;;;;6.00;2.63;;;17.90;53.20;;;;;;4991375;28;20062;-62
2022/01/19 00:23:39;;;;;;;3.17;2.25;;;17.90;53.30;;;;;;4987470;28;20026;-60
2022/01/19 00:26:04;;;;;;;2.70;2.15;;;17.90;53.30;;;;;;4997861;28;20060;-62
2022/01/19 00:28:30;;;;;;;3.55;2.35;;;17.90;53.20;;;;;;4993422;28;20022;-62
2022/01/19 00:30:55;;;;;;;6.53;2.30;;;17.90;53.20;;;;;;4995683;28;20609;-62
2022/01/19 00:33:21;;;;;;;3.05;2.08;;;17.90;53.20;;;;;;4991866;28;20080;-62
2022/01/19 00:35:48;;;;;;;3.53;2.28;;;17.90;53.20;;;;;;4999251;28;20485;-62
2022/01/19 00:38:13;;;;;;;2.42;2.10;;;17.90;53.30;;;;;;4996836;28;20034;-62
2022/01/19 00:40:39;;;;;;;3.83;2.28;;;17.90;53.30;;;;;;4994097;28;20521;-62
2022/01/19 00:43:05;;;;;;;2.80;1.90;;;17.90;53.30;;;;;;4996818;28;20033;-62
2022/01/19 00:45:31;;;;;;;2.65;2.45;;;17.90;53.30;;;;;;4999374;28;20117;-62
2022/01/19 00:47:56;;;;;;;1.92;1.65;;;17.90;53.30;;;;;;5005210;28;20026;-61
2022/01/19 00:50:24;;;;;;;3.17;1.70;;;17.90;53.30;;;;;;4999409;28;20022;-61
2022/01/19 00:52:51;;;;;;;1.88;1.65;;;17.90;53.30;;;;;;4999112;28;20399;-62
2022/01/19 00:55:16;;;;;;;2.67;1.75;;;17.90;53.30;;;;;;4986483;28;20093;-63
2022/01/19 00:57:42;;;;;;;2.17;1.98;;;17.90;53.30;;;;;;4994641;28;20496;-62
2022/01/19 01:00:10;;;;;;;3.08;1.75;;;17.90;53.30;;;;;;4990939;28;20026;-62
2022/01/19 01:02:36;;;;;;;3.63;1.75;;;17.90;53.30;;;;;;4994373;28;21164;-62
2022/01/19 01:05:02;;;;;;;3.00;2.00;;;17.90;53.30;;;;;;4989691;28;20030;-62
2022/01/19 01:07:27;;;;;;;2.90;2.08;;;17.90;53.20;;;;;;4993885;28;20113;-62
2022/01/19 01:09:54;;;;;;;2.13;1.90;;;17.90;53.20;;;;;;4996773;28;20563;-62
2022/01/19 01:12:23;;;;;;;3.10;2.08;;;17.90;53.20;;;;;;4999735;28;20028;-62
2022/01/19 01:20:16;;;;;;;3.58;1.48;;;17.90;53.20;;;;;;4986057;28;20112;-62
2022/01/19 01:22:42;;;;;;;2.50;1.80;;;17.90;53.20;;;;;;4998399;28;20053;-63
2022/01/19 01:25:08;;;;;;;1.92;1.50;;;17.90;53.20;;;;;;4997952;28;20025;-62
2022/01/19 01:27:33;;;;;;;4.93;1.70;;;17.90;53.20;;;;;;4986004;28;20038;-62
2022/01/19 01:29:59;;;;;;;2.47;1.77;;;17.90;53.10;;;;;;4992578;28;20084;-62
2022/01/19 01:32:24;;;;;;;3.25;2.10;;;17.90;53.10;;;;;;4993521;28;20026;-62
2022/01/19 01:34:51;;;;;;;4.53;1.73;;;17.90;53.00;;;;;;5000287;28;20037;-62
2022/01/19 01:37:17;;;;;;;2.50;1.90;;;17.90;53.00;;;;;;5001886;28;20480;-61
2022/01/19 01:39:42;;;;;;;2.80;2.03;;;17.90;53.00;;;;;;4999274;28;20062;-62
2022/01/19 01:42:11;;;;;;;1.85;1.48;;;18.00;52.90;;;;;;5001125;28;20034;-62
2022/01/19 01:44:38;;;;;;;1.75;1.35;;;18.00;52.90;;;;;;4993072;28;20033;-63
2022/01/19 01:47:04;;;;;;;1.83;1.50;;;18.00;52.90;;;;;;4987093;28;20037;-62
2022/01/19 01:49:45;;;;;;;4.03;2.45;;;18.00;52.90;;;;;;4990398;28;20030;-62
2022/01/19 01:54:56;;;;;;;2.65;1.77;;;18.00;52.80;;;;;;4992014;28;20037;-62
2022/01/19 01:57:21;;;;;;;2.22;1.50;;;18.00;52.80;;;;;;4998961;28;20022;-61
2022/01/19 01:59:47;;;;;;;2.30;1.58;;;17.90;52.80;;;;;;4994149;28;20049;-62
2022/01/19 02:02:12;;;;;;;2.40;1.92;;;17.90;52.70;;;;;;5004238;28;20485;-62
2022/01/19 02:04:41;;;;;;;1.73;1.42;;;18.00;52.80;;;;;;4991357;28;20019;-62
2022/01/19 02:07:32;;;;;;;2.17;1.58;;;18.00;52.70;;;;;;5007503;28;20022;-61
2022/01/19 02:10:01;;;;;;;1.80;1.65;;;18.00;52.80;;;;;;4988599;28;20065;-62
2022/01/19 02:21:45;;;;;;;1.75;1.55;;;17.90;52.80;;;;;;4992288;28;20162;-62
2022/01/19 02:23:38;;;;;;;3.38;1.63;;;17.90;52.80;;;;;;4987786;28;20030;-62
2022/01/19 02:26:08;;;;;;;1.95;1.55;;;17.90;52.80;;;;;;5005597;28;20503;-62
2022/01/19 02:42:07;;;;;;;3.58;1.55;;;17.80;52.80;;;;;;5007960;28;20029;-63
2022/01/19 02:49:48;;;;;;;2.50;1.70;;;17.80;52.90;;;;;;5000892;28;20044;-62
2022/01/19 02:52:13;;;;;;;2.58;1.67;;;17.80;53.50;;;;;;4992873;28;20031;-62
2022/01/19 02:54:39;;;;;;;1.90;1.40;;;17.70;52.90;;;;;;4993819;28;20033;-62
2022/01/19 02:57:07;;;;;;;3.85;1.45;;;17.70;52.90;;;;;;4991505;28;20377;-62
2022/01/19 03:10:29;;;;;;;2.03;1.10;;;17.70;53.00;;;;;;5004022;28;20049;-62
2022/01/19 03:12:54;;;;;;;1.75;1.58;;;17.70;53.00;;;;;;4992994;28;20053;-61
2022/01/19 03:15:20;;;;;;;1.83;1.10;;;17.60;52.90;;;;;;4990703;28;20049;-62
2022/01/19 03:17:46;;;;;;;1.50;1.20;;;17.60;53.00;;;;;;4996040;28;20033;-63
2022/01/19 03:20:11;;;;;;;1.45;1.30;;;17.60;53.00;;;;;;5002320;28;20146;-62
2022/01/19 03:22:48;;;;;;;1.50;1.10;;;17.60;53.00;;;;;;4995552;28;20076;-62
2022/01/19 03:25:13;;;;;;;2.28;1.63;;;17.60;53.10;;;;;;4995518;28;20089;-62
2022/01/19 03:27:47;;;;;;;1.33;1.15;;;17.60;53.10;;;;;;5000582;28;20739;-62
2022/01/19 03:30:13;;;;;;;1.40;1.20;;;17.60;53.10;;;;;;4995263;28;20030;-62
2022/01/19 03:32:39;;;;;;;1.42;1.17;;;17.60;53.00;;;;;;5001038;28;20030;-62
2022/01/19 03:35:05;;;;;;;1.65;1.20;;;17.60;52.90;;;;;;4989050;28;20108;-62
2022/01/19 03:37:30;;;;;;;2.42;1.52;;;17.70;52.80;;;;;;5001657;28;20022;-62
2022/01/19 03:39:56;;;;;;;1.30;1.10;;;17.70;52.70;;;;;;4998467;28;20060;-61
2022/01/19 03:42:21;;;;;;;1.17;1.00;;;17.80;52.60;;;;;;4997920;28;20022;-62
2022/01/19 03:44:47;;;;;;;1.60;0.95;;;17.80;52.60;;;;;;4980785;28;20025;-61
2022/01/19 03:47:12;;;;;;;1.10;0.90;;;17.80;52.60;;;;;;4990869;28;20073;-63
2022/01/19 03:49:38;;;;;;;1.27;1.17;;;17.80;52.50;;;;;;4990873;28;20085;-62
2022/01/19 03:52:04;;;;;;;1.23;1.00;;;17.80;52.40;;;;;;4995843;28;20019;-62
2022/01/19 03:54:33;;;;;;;1.70;1.30;;;17.90;52.40;;;;;;5001444;28;20061;-62
2022/01/19 03:56:58;;;;;;;1.38;1.27;;;17.90;52.40;;;;;;4997654;28;20397;-62
2022/01/19 03:59:24;;;;;;;1.10;0.90;;;17.90;52.30;;;;;;5000950;28;20022;-62
2022/01/19 04:01:53;;;;;;;1.33;1.10;;;17.90;52.30;;;;;;4998638;28;20038;-62
2022/01/19 04:09:18;;;;;;;1.00;0.80;;;17.90;52.20;;;;;;5001443;28;20045;-61
2022/01/19 04:11:44;;;;;;;1.88;0.93;;;17.90;52.20;;;;;;4996718;28;20130;-62
2022/01/19 04:16:35;;;;;;;1.05;0.90;;;18.00;52.30;;;;;;5002165;28;20034;-62
2022/01/19 04:19:13;;;;;;;1.02;0.93;;;18.00;52.30;;;;;;4995305;28;20030;-61
2022/01/19 04:21:38;;;;;;;1.10;1.00;;;18.00;52.30;;;;;;5002428;28;20045;-61
2022/01/19 04:24:04;;;;;;;1.35;0.70;;;18.00;52.30;;;;;;4987452;28;20022;-62
2022/01/19 04:26:31;;;;;;;1.65;1.00;;;18.00;52.30;;;;;;4994940;28;20026;-61
2022/01/19 04:28:57;;;;;;;1.65;0.80;;;18.00;52.40;;;;;;4994245;28;20030;-62
2022/01/19 04:31:22;;;;;;;0.77;0.68;;;17.90;52.40;;;;;;4991215;28;20075;-62
2022/01/19 04:33:48;;;;;;;1.05;0.95;;;18.00;52.40;;;;;;4991938;28;20568;-61
2022/01/19 04:36:29;;;;;;;1.05;0.80;;;18.00;52.40;;;;;;4993341;28;20027;-62
2022/01/19 04:44:39;;;;;;;2.05;0.95;;;18.00;52.40;;;;;;4999130;28;20710;-62
2022/01/19 04:54:19;;;;;;;2.13;0.80;;;18.00;52.30;;;;;;5003098;28;20037;-62
2022/01/19 05:06:08;;;;;;;0.80;0.70;;;18.10;52.10;;;;;;4986896;28;20027;-63
2022/01/19 05:08:51;;;;;;;1.00;0.90;;;18.10;52.10;;;;;;4996219;28;20041;-63
2022/01/19 05:14:01;;;;;;;0.80;0.77;;;18.00;52.30;;;;;;4990927;28;20032;-63
2022/01/19 05:16:27;;;;;;;1.00;0.90;;;18.00;52.40;;;;;;4987028;28;20400;-63
2022/01/19 05:18:53;;;;;;;0.68;0.60;;;17.90;52.40;;;;;;4998273;28;20054;-62
2022/01/19 05:21:18;;;;;;;1.23;0.70;;;17.90;52.40;;;;;;5002413;28;20493;-61
2022/01/19 05:23:44;;;;;;;0.75;0.50;;;18.00;52.40;;;;;;4999723;28;20056;-63
2022/01/19 05:26:09;;;;;;;0.80;0.57;;;18.00;52.40;;;;;;5001066;28;20104;-62
2022/01/19 05:28:36;;;;;;;0.70;0.70;;;17.90;52.40;;;;;;4994769;28;20030;-63
2022/01/19 05:31:01;;;;;;;0.80;0.65;;;17.90;52.40;;;;;;4999134;28;20038;-62
2022/01/19 05:33:27;;;;;;;0.82;0.73;;;17.90;52.30;;;;;;4994531;28;20022;-62
2022/01/19 05:35:52;;;;;;;1.55;0.60;;;18.00;52.30;;;;;;5005266;28;20092;-62
2022/01/19 05:38:18;;;;;;;1.30;0.70;;;18.00;52.20;;;;;;4992235;28;20117;-63
2022/01/19 05:40:43;;;;;;;0.80;0.50;;;18.00;52.10;;;;;;4999396;28;20030;-62
2022/01/19 05:43:10;;;;;;;0.60;0.60;;;18.00;52.10;;;;;;4996070;28;20017;-62
2022/01/19 05:45:35;;;;;;;0.82;0.70;;;18.00;52.00;;;;;;4999898;28;20022;-61
2022/01/19 05:48:01;;;;;;;1.40;0.68;;;18.00;52.00;;;;;;4998918;28;20037;-62
2022/01/19 05:50:27;;;;;;;1.23;0.73;;;18.00;51.90;;;;;;4986885;28;20473;-62
2022/01/19 05:52:52;;;;;;;2.25;0.60;;;18.00;51.90;;;;;;4999242;28;20041;-61
2022/01/19 05:55:18;;;;;;;0.85;0.60;;;18.00;51.80;;;;;;4992199;28;20042;-63
2022/01/19 05:57:43;;;;;;;0.60;0.60;;;18.00;51.70;;;;;;4994582;28;20023;-62
2022/01/19 06:00:09;;;;;;;1.10;0.50;;;18.00;51.70;;;;;;4994943;28;20370;-62
2022/01/19 06:02:35;;;;;;;1.08;0.50;;;18.00;51.60;;;;;;4995334;28;20496;-62
2022/01/19 06:05:01;;;;;;;1.92;0.68;;;18.00;51.60;;;;;;5000012;28;20026;-62
2022/01/19 06:07:29;;;;;;;0.80;0.50;;;18.00;51.50;;;;;;4988759;28;20019;-63
2022/01/19 06:10:05;;;;;;;1.13;0.80;;;18.10;51.50;;;;;;5003833;28;20041;-64
2022/01/19 06:12:31;;;;;;;1.13;0.70;;;18.10;51.50;;;;;;5003091;28;20105;-64
2022/01/19 06:14:56;;;;;;;4.28;0.70;;;18.00;51.50;;;;;;4997168;28;20113;-63
2022/01/19 06:17:22;;;;;;;1.58;0.50;;;18.10;51.50;;;;;;5008180;28;20029;-62
2022/01/19 06:19:48;;;;;;;2.17;0.80;;;18.10;51.60;;;;;;5002381;28;20072;-63
2022/01/19 06:22:14;;;;;;;0.93;0.60;;;18.00;51.60;;;;;;4997156;28;20436;-62
2022/01/19 06:24:40;;;;;;;1.00;0.80;;;18.00;51.70;;;;;;5006025;28;20026;-62
2022/01/19 06:27:05;;;;;;;1.30;0.70;;;18.00;51.70;;;;;;4997288;28;20112;-62
2022/01/19 06:29:31;;;;;;;3.20;0.70;;;18.00;51.90;;;;;;5000269;28;20030;-62
2022/01/19 06:31:56;;;;;;;2.50;0.90;;;18.00;51.90;;;;;;4997901;28;20027;-62
2022/01/19 06:34:22;;;;;;;2.58;1.00;;;18.00;51.80;;;;;;5006832;28;20046;-59
2022/01/19 06:36:51;;;;;;;4.05;1.08;;;18.00;51.80;;;;;;4994994;28;20052;-63
2022/01/19 06:39:16;;;;;;;4.47;1.17;;;18.00;51.80;;;;;;5008348;28;20026;-64
2022/01/19 06:41:42;;;;;;;2.63;1.23;;;18.00;51.80;;;;;;5004271;28;20516;-62
2022/01/19 06:44:07;;;;;;;7.60;1.77;;;18.00;51.80;;;;;;5007304;28;20088;-63
2022/01/19 06:46:33;;;;;;;11.90;3.30;;;18.00;51.80;;;;;;4999636;28;20022;-63
2022/01/19 06:48:58;;;;;;;1.60;1.25;;;18.00;51.70;;;;;;5002743;28;20026;-63
2022/01/19 06:51:24;;;;;;;4.38;1.58;;;18.00;51.60;;;;;;5000707;28;20400;-62
2022/01/19 06:53:50;;;;;;;9.15;3.78;;;18.00;51.60;;;;;;5000175;28;20045;-63
2022/01/19 06:56:16;;;;;;;9.43;3.50;;;18.00;51.70;;;;;;5000325;28;20121;-63
2022/01/19 06:58:41;;;;;;;5.43;3.05;;;18.00;51.70;;;;;;5002703;28;20447;-61
2022/01/19 07:01:07;;;;;;;8.40;3.40;;;18.00;51.80;;;;;;4996247;28;20037;-61
2022/01/19 07:03:33;;;;;;;8.13;2.55;;;17.90;51.70;;;;;;5001355;28;20026;-61
2022/01/19 07:05:58;;;;;;;5.20;3.10;;;17.90;51.70;;;;;;4987724;28;20118;-61
2022/01/19 07:08:24;;;;;;;9.35;3.20;;;17.90;51.60;;;;;;4994317;28;20121;-60
2022/01/19 07:10:49;;;;;;;6.40;3.00;;;17.90;51.70;;;;;;4993179;28;20413;-62
2022/01/19 07:13:15;;;;;;;6.15;3.00;;;17.90;51.60;;;;;;5000619;28;20040;-63
2022/01/19 07:15:40;;;;;;;10.48;3.92;;;17.90;51.60;;;;;;5006254;28;20034;-61
2022/01/19 07:18:06;;;;;;;12.93;5.28;;;17.90;52.00;;;;;;4989032;28;20050;-61
2022/01/19 07:20:32;;;;;;;10.98;4.55;;;17.90;52.90;;;;;;4995805;28;20037;-61
2022/01/19 07:23:01;;;;;;;11.68;4.88;;;17.90;53.00;;;;;;5008048;28;20120;-60
2022/01/19 07:25:27;;;;;;;10.13;4.53;;;17.90;53.20;;;;;;4996960;28;20469;-61
2022/01/19 07:27:52;;;;;;;14.35;4.50;;;17.90;53.30;;;;;;5008675;28;20153;-61
2022/01/19 07:30:18;;;;;;;9.40;4.57;;;17.90;53.40;;;;;;4993850;28;20022;-62
2022/01/19 07:32:44;;;;;;;10.48;4.20;;;17.80;53.40;;;;;;4993406;28;20033;-61
2022/01/19 07:35:09;;;;;;;11.68;4.03;;;17.80;53.50;;;;;;4989592;28;20073;-62
2022/01/19 07:37:35;;;;;;;14.88;4.63;;;17.80;53.40;;;;;;4997434;28;20026;-62
2022/01/19 07:40:00;;;;;;;9.85;4.22;;;17.80;53.20;;;;;;5003735;28;20650;-61
2022/01/19 07:42:26;;;;;;;14.18;4.97;;;17.80;53.20;;;;;;5005450;28;20029;-61
2022/01/19 07:44:53;;;;;;;11.45;4.13;;;17.80;53.30;;;;;;4989025;28;20464;-62
2022/01/19 07:47:18;;;;;;;10.05;4.07;;;17.80;53.30;;;;;;4998124;28;20034;-62
2022/01/19 07:49:44;;;;;;;10.73;4.20;;;17.70;53.30;;;;;;4988468;28;20489;-61
2022/01/19 07:52:09;;;;;;;12.32;4.10;;;17.70;53.30;;;;;;5004639;28;20034;-62
2022/01/19 07:54:35;;;;;;;11.70;4.13;;;17.70;53.20;;;;;;5001314;28;20100;-62
2022/01/19 07:57:00;;;;;;;8.73;4.43;;;17.70;53.10;;;;;;4997235;28;20030;-62
2022/01/19 07:59:26;;;;;;;15.15;4.25;;;17.80;53.00;;;;;;4990070;28;20027;-62
2022/01/19 08:01:53;;;;;;;13.10;5.20;;;17.70;52.80;;;;;;4995604;28;20062;-62
2022/01/19 08:04:19;;;;;;;11.13;4.90;;;17.70;53.10;;;;;;5001590;28;20025;-62
2022/01/19 08:06:44;;;;;;;9.32;4.43;;;17.70;53.00;;;;;;4992910;28;20026;-62
2022/01/19 08:09:10;;;;;;;12.52;4.38;;;17.60;52.90;;;;;;4997159;28;20046;-62
2022/01/19 08:11:36;;;;;;;10.05;4.03;;;17.70;53.00;;;;;;4999225;28;20113;-62
2022/01/19 08:14:01;;;;;;;10.85;3.75;;;17.60;52.90;;;;;;5003855;28;20034;-55
2022/01/19 08:16:27;;;;;;;10.68;3.63;;;17.60;53.50;;;;;;4996523;28;20408;-58
2022/01/19 08:18:52;;;;;;;7.78;3.17;;;17.60;53.50;;;;;;5001642;28;20034;-62
2022/01/19 08:21:18;;;;;;;9.60;3.33;;;17.60;53.40;;;;;;5000159;28;20037;-62
2022/01/19 08:23:43;;;;;;;6.93;2.90;;;17.60;53.40;;;;;;4990871;28;20569;-61
2022/01/19 08:26:13;;;;;;;7.20;3.20;;;17.60;53.90;;;;;;4995502;28;20027;-62
2022/01/19 08:28:38;;;;;;;5.18;3.00;;;17.50;53.50;;;;;;4992214;28;20034;-62
2022/01/19 08:31:04;;;;;;;6.72;3.25;;;17.60;53.50;;;;;;4993434;28;20026;-61
2022/01/19 08:33:29;;;;;;;4.38;2.55;;;17.50;53.50;;;;;;4999576;28;20468;-62
2022/01/19 08:35:55;;;;;;;7.28;3.40;;;17.50;53.60;;;;;;5001349;28;20037;-62
2022/01/19 08:38:20;;;;;;;4.85;2.75;;;17.50;53.60;;;;;;5005636;28;20052;-64
2022/01/19 08:40:46;;;;;;;25.63;4.10;;;17.50;53.60;;;;;;4997381;28;20049;-62
2022/01/19 08:43:11;;;;;;;12.65;3.35;;;17.50;53.90;;;;;;4991908;28;20089;-60
2022/01/19 08:45:37;;;;;;;5.65;3.28;;;17.50;53.70;;;;;;5000248;28;20088;-61
2022/01/19 08:48:03;;;;;;;8.40;3.30;;;17.50;53.90;;;;;;4992106;28;20100;-62
2022/01/19 08:50:29;;;;;;;4.85;2.75;;;17.40;53.80;;;;;;4996221;28;20035;-62
2022/01/19 08:52:54;;;;;;;5.57;3.10;;;17.40;53.70;;;;;;4992102;28;20034;-63
2022/01/19 08:55:20;;;;;;;5.60;3.00;;;17.40;53.80;;;;;;4988240;28;20031;-62
2022/01/19 08:57:46;;;;;;;6.38;3.08;;;17.40;54.90;;;;;;4993426;28;20062;-63
2022/01/19 09:00:13;;;;;;;6.80;3.40;;;17.40;54.40;;;;;;5007403;28;20109;-62
2022/01/19 09:02:39;;;;;;;7.35;3.42;;;17.40;54.60;;;;;;4990875;28;20520;-61
2022/01/19 09:05:05;;;;;;;6.95;3.20;;;17.40;54.70;;;;;;5001199;28;20034;-61
2022/01/19 09:07:30;;;;;;;4.13;2.60;;;17.40;54.70;;;;;;4995637;28;20030;-61
2022/01/19 09:09:56;;;;;;;10.10;3.10;;;17.30;54.60;;;;;;5004131;28;20079;-61
2022/01/19 09:12:21;;;;;;;4.63;3.17;;;17.30;54.60;;;;;;4988127;28;20030;-59
2022/01/19 09:14:47;;;;;;;6.07;2.97;;;17.30;54.50;;;;;;4999102;28;20033;-62
2022/01/19 09:17:12;;;;;;;6.72;2.72;;;17.30;54.40;;;;;;4992175;28;20157;-60
2022/01/19 09:19:39;;;;;;;5.57;3.13;;;17.30;54.40;;;;;;4995202;28;20027;-61
2022/01/19 09:22:09;;;;;;;6.22;2.97;;;17.20;54.40;;;;;;4994921;28;20027;-61
2022/01/19 09:24:35;;;;;;;9.13;2.70;;;17.20;54.30;;;;;;4994712;28;20072;-60
2022/01/19 09:27:01;;;;;;;8.98;2.70;;;17.20;54.50;;;;;;5001798;28;20022;-60
2022/01/19 09:29:26;;;;;;;4.78;2.80;;;17.20;54.40;;;;;;5006866;28;20425;-61
2022/01/19 09:31:54;;;;;;;6.43;3.10;;;17.20;54.40;;;;;;5000079;28;20091;-60
2022/01/19 09:34:21;;;;;;;6.00;2.92;;;17.20;54.40;;;;;;4995699;28;20023;-60
2022/01/19 09:36:46;;;;;;;6.32;2.88;;;17.10;54.40;;;;;;4995615;28;20049;-58
2022/01/19 09:39:25;;;;;;;5.50;2.85;;;17.10;54.40;;;;;;5002340;28;20025;-61
2022/01/19 09:41:51;;;;;;;8.45;2.60;;;17.10;54.30;;;;;;4997322;28;20527;-62
2022/01/19 09:44:17;;;;;;;4.60;2.40;;;17.10;54.30;;;;;;4995948;28;20694;-56
2022/01/19 09:46:43;;;;;;;4.40;2.55;;;17.10;54.30;;;;;;5009194;28;20025;-60
2022/01/19 09:49:09;;;;;;;4.40;2.45;;;17.10;54.40;;;;;;4996231;28;20606;-62
2022/01/19 09:51:34;;;;;;;3.33;2.30;;;17.00;54.20;;;;;;5002084;28;20057;-61
2022/01/19 09:54:00;;;;;;;6.60;2.90;;;17.00;54.30;;;;;;4995884;28;20034;-61
2022/01/19 09:56:25;;;;;;;3.08;2.55;;;17.00;54.20;;;;;;4998960;28;20041;-61
2022/01/19 09:58:51;;;;;;;4.13;2.00;;;17.00;54.20;;;;;;4997411;28;20493;-62
2022/01/19 10:01:20;;;;;;;6.43;2.83;;;17.00;54.30;;;;;;5009391;28;20049;-61
2022/01/19 10:03:46;;;;;;;4.43;2.40;;;17.00;54.20;;;;;;5001573;28;20096;-61
2022/01/19 10:06:19;;;;;;;3.97;2.53;;;17.00;54.20;;;;;;5002085;23;20062;-75
2022/01/19 10:08:54;;;;;;;7.07;3.28;;;17.00;54.20;;;;;;4986846;28;20027;-77
2022/01/19 10:17:02;;;;;;;9.73;1.95;;;17.00;54.20;;;;;;4978749;28;20070;-76
2022/01/19 10:19:37;;;;;;;4.07;2.90;;;16.90;54.20;;;;;;4962502;28;20063;-75
2022/01/19 10:22:20;;;;;;;3.42;2.17;;;16.90;54.20;;;;;;4962987;28;20039;-75
2022/01/19 10:24:50;;;;;;;7.32;2.15;;;16.90;54.20;;;;;;4982647;28;20106;-75
2022/01/19 10:27:40;;;;;;;6.45;2.40;;;16.90;54.20;;;;;;4982739;28;20069;-75
2022/01/19 10:30:05;;;;;;;3.95;2.42;;;16.90;54.20;;;;;;4969591;28;20039;-74
2022/01/19 10:32:35;;;;;;;3.92;2.47;;;16.90;54.30;;;;;;4971578;28;20041;-76
2022/01/19 10:35:13;;;;;;;4.72;2.15;;;16.90;54.40;;;;;;4980170;28;20043;-75
2022/01/19 10:37:38;;;;;;;5.07;2.35;;;16.90;55.00;;;;;;4969696;28;20024;-75
2022/01/19 10:40:04;;;;;;;5.43;2.20;;;16.90;54.90;;;;;;4962960;28;20441;-74
2022/01/19 10:42:31;;;;;;;4.53;2.38;;;16.90;54.80;;;;;;4998323;28;20031;-75
2022/01/19 10:44:58;;;;;;;5.80;2.40;;;16.80;54.80;;;;;;4979628;28;20050;-75
2022/01/19 10:47:43;;;;;;;3.30;2.10;;;16.90;54.80;;;;;;4968941;28;20023;-75
2022/01/19 10:50:28;;;;;;;4.10;2.03;;;16.80;54.80;;;;;;4983575;28;20045;-74
2022/01/19 10:52:58;;;;;;;8.52;2.17;;;16.80;54.80;;;;;;4967685;28;20062;-74
2022/01/19 10:55:26;;;;;;;3.72;2.40;;;16.80;54.70;;;;;;4980960;28;20058;-74
2022/01/19 10:57:52;;;;;;;3.10;2.00;;;16.80;54.80;;;;;;4969203;28;20093;-73
2022/01/19 11:00:18;;;;;;;4.97;2.20;;;16.80;54.70;;;;;;4969189;28;20114;-76
2022/01/19 11:02:44;;;;;;;2.95;2.10;;;16.80;54.70;;;;;;4967673;28;20042;-79
2022/01/19 11:05:10;;;;;;;5.50;2.40;;;16.80;54.90;;;;;;4953247;28;20038;-75
2022/01/19 11:07:36;;;;;;;4.07;2.13;;;16.80;54.80;;;;;;4968907;28;20508;-77
2022/01/19 11:10:10;;;;;;;4.00;1.83;;;16.80;54.90;;;;;;4969579;28;20117;-77
2022/01/19 11:12:44;;;;;;;3.72;1.90;;;16.80;55.30;;;;;;4969416;28;20060;-75
2022/01/19 11:15:10;;;;;;;2.95;2.05;;;16.80;55.60;;;;;;4953821;28;20039;-73
2022/01/19 11:17:36;;;;;;;6.60;2.22;;;16.80;55.50;;;;;;4968534;28;20030;-73
2022/01/19 11:20:11;;;;;;;6.03;2.40;;;16.80;55.50;;;;;;4975248;28;20027;-75
2022/01/19 11:22:57;;;;;;;10.88;5.18;;;16.80;55.40;;;;;;4967247;28;20055;-76
2022/01/19 11:25:44;;;;;;;20.30;8.95;;;16.80;57.20;;;;;;4958015;28;20023;-74
2022/01/19 11:28:09;;;;;;;14.68;6.95;;;16.80;58.10;;;;;;4983810;28;20043;-75
2022/01/19 11:30:35;;;;;;;12.50;6.32;;;16.80;57.70;;;;;;4981105;28;20497;-77
2022/01/19 11:33:15;;;;;;;17.95;7.00;;;16.80;57.30;;;;;;4984135;28;20038;-73
2022/01/19 11:35:47;;;;;;;14.85;7.22;;;16.80;57.60;;;;;;4964288;28;20113;-75
2022/01/19 11:38:44;;;;;;;14.05;8.05;;;16.80;58.20;;;;;;4968036;28;20094;-75
2022/01/19 11:41:10;;;;;;;15.73;7.63;;;16.70;58.60;;;;;;4993435;28;20195;-76
2022/01/19 11:43:37;;;;;;;14.93;7.72;;;16.70;58.10;;;;;;4967160;28;20047;-76
2022/01/19 11:46:03;;;;;;;12.18;7.15;;;16.70;57.80;;;;;;4983018;28;20042;-77
2022/01/19 11:48:32;;;;;;;11.90;6.57;;;16.70;57.60;;;;;;4967217;28;20031;-76
2022/01/19 11:51:35;;;;;;;14.82;6.38;;;16.70;57.40;;;;;;4973970;28;20485;-75
2022/01/19 11:54:13;;;;;;;11.50;6.60;;;16.70;57.20;;;;;;4977438;28;20529;-76
2022/01/19 11:57:00;;;;;;;11.35;6.32;;;16.70;57.10;;;;;;4965472;28;20063;-76
2022/01/19 11:59:29;;;;;;;13.70;7.30;;;16.70;57.00;;;;;;4966402;28;20399;-73
2022/01/19 12:02:20;;;;;;;13.52;5.45;;;16.70;56.90;;;;;;4964216;28;20066;-78
2022/01/19 12:04:54;;;;;;;14.55;6.00;;;16.70;56.80;;;;;;4964761;28;20038;-76
2022/01/19 12:07:54;;;;;;;10.80;5.75;;;16.70;56.80;;;;;;4983342;28;20444;-77
2022/01/19 12:10:42;;;;;;;11.15;5.72;;;16.70;56.70;;;;;;4992131;28;20035;-78
2022/01/19 12:16:11;;;;;;;10.27;5.55;;;16.60;57.00;;;;;;4957729;28;20071;-73
2022/01/19 12:18:40;;;;;;;13.30;5.55;;;16.60;58.40;;;;;;4978545;28;20062;-76
2022/01/19 12:21:07;;;;;;;9.30;5.18;;;16.60;58.40;;;;;;4959997;28;20042;-77
2022/01/19 12:23:34;;;;;;;9.90;5.63;;;16.60;58.40;;;;;;4983254;28;20031;-78
2022/01/19 12:26:00;;;;;;;13.60;5.70;;;16.60;58.70;;;;;;4982008;28;20113;-76
2022/01/19 12:28:47;;;;;;;15.00;6.25;;;16.60;59.50;;;;;;4971625;28;20481;-75
2022/01/19 12:31:25;;;;;;;15.35;7.40;;;16.60;60.60;;;;;;4963182;28;20034;-74
2022/01/19 12:34:03;;;;;;;17.05;6.20;;;16.60;60.80;;;;;;4946158;22;20062;-55
2022/01/19 12:36:54;;;;;;;14.48;5.97;;;16.60;60.20;;;;;;4944850;28;20042;-58
2022/01/19 12:39:25;;;;;;;9.45;5.43;;;16.60;59.80;;;;;;4929953;29;20058;-52
2022/01/19 12:41:59;;;;;;;10.38;5.28;;;16.60;59.50;;;;;;4945188;28;20050;-53
2022/01/19 12:44:46;;;;;;;13.95;5.65;;;16.60;59.30;;;;;;4930514;28;20111;-57
2022/01/19 12:47:29;;;;;;;14.35;5.15;;;16.60;59.00;;;;;;4941198;28;20090;-51
2022/01/19 12:50:07;;;;;;;12.75;5.38;;;16.60;58.90;;;;;;4943785;28;20035;-54
2022/01/19 12:52:33;;;;;;;11.75;5.15;;;16.60;58.60;;;;;;4954065;28;20043;-55
2022/01/19 12:55:19;;;;;;;10.82;5.05;;;16.60;58.50;;;;;;4953490;28;20031;-54
2022/01/19 12:57:45;;;;;;;12.93;4.88;;;16.60;58.40;;;;;;4955472;28;20031;-48
2022/01/19 13:00:13;;;;;;;11.30;4.38;;;16.60;58.80;;;;;;4948444;28;20449;-48
2022/01/19 13:02:38;;;;;;;13.35;5.30;;;16.60;59.20;;;;;;4929619;28;20107;-50
2022/01/19 13:05:15;;;;;;;14.20;5.05;;;16.60;59.20;;;;;;4915906;28;20122;-55
2022/01/19 13:07:43;;;;;;;13.88;4.88;;;16.60;59.10;;;;;;4915987;28;20035;-57
2022/01/19 13:10:24;;;;;;;14.38;4.25;;;16.60;58.70;;;;;;4915920;28;20087;-51
2022/01/19 13:15:20;;;;;;;9.55;3.95;;;16.40;58.20;;;;;;4940305;28;20036;-49
2022/01/19 13:17:47;;;;;;;7.97;3.95;;;16.10;59.00;;;;;;4937285;28;20394;-52
2022/01/19 13:20:15;;;;;;;11.63;3.47;;;15.80;59.90;;;;;;4929271;28;20680;-56
2022/01/19 13:22:56;;;;;;;10.73;3.00;;;15.60;60.60;;;;;;4948707;28;20482;-56
2022/01/19 13:25:25;;;;;;;10.70;2.80;;;15.50;60.70;;;;;;4917570;28;20094;-50
2022/01/19 13:27:54;;;;;;;9.15;3.70;;;15.50;61.10;;;;;;4945012;28;20505;-57
2022/01/19 13:30:19;;;;;;;8.32;3.28;;;15.40;61.00;;;;;;4947974;28;20466;-60
2022/01/19 13:32:45;;;;;;;7.70;3.08;;;15.40;61.40;;;;;;4946456;28;20118;-56
2022/01/19 13:35:11;;;;;;;10.88;3.42;;;15.40;61.10;;;;;;4943101;28;20135;-48
2022/01/19 13:37:51;;;;;;;10.60;3.85;;;15.40;61.00;;;;;;4944733;28;20086;-51
2022/01/19 13:40:19;;;;;;;9.73;3.50;;;15.40;60.90;;;;;;4946714;28;20042;-53
2022/01/19 13:42:50;;;;;;;5.88;3.15;;;15.50;60.60;;;;;;4947664;28;20036;-55
2022/01/19 13:45:48;;;;;;;7.90;2.78;;;15.50;60.50;;;;;;4957455;28;20097;-56
2022/01/19 13:51:06;;;;;;;6.88;2.83;;;15.50;60.20;;;;;;4947361;28;20034;-49
2022/01/19 13:53:40;;;;;;;5.10;2.67;;;15.50;60.00;;;;;;4941614;28;20027;-61
2022/01/19 13:56:07;;;;;;;5.70;2.55;;;15.50;59.90;;;;;;4947029;28;20038;-50
2022/01/19 13:58:35;;;;;;;6.03;2.67;;;15.50;59.90;;;;;;4933424;28;20035;-50
2022/01/19 14:01:04;;;;;;;7.40;2.53;;;15.50;59.80;;;;;;4930328;28;20040;-59
2022/01/19 14:03:49;;;;;;;6.75;2.90;;;15.50;59.60;;;;;;4950143;28;20047;-54
2022/01/19 14:06:22;;;;;;;6.30;2.50;;;15.50;59.60;;;;;;4946235;28;20047;-53
2022/01/19 14:08:47;;;;;;;8.23;2.65;;;15.50;59.60;;;;;;4944648;28;20285;-52
2022/01/19 14:11:25;;;;;;;5.88;2.35;;;15.50;59.70;;;;;;4945909;28;20497;-56
2022/01/19 14:13:58;;;;;;;4.50;2.40;;;15.50;59.80;;;;;;4954627;28;20070;-62
2022/01/19 14:16:38;;;;;;;5.88;2.08;;;15.50;59.80;;;;;;4957689;28;20058;-51
2022/01/19 14:19:27;;;;;;;8.05;2.28;;;15.50;59.70;;;;;;4931756;28;20087;-50
2022/01/19 14:22:01;;;;;;;7.53;2.30;;;15.50;59.80;;;;;;4946838;28;20210;-49
2022/01/19 14:24:27;;;;;;;3.67;2.40;;;15.60;59.80;;;;;;4934961;28;20485;-49
2022/01/19 14:26:57;;;;;;;5.25;2.20;;;15.60;59.80;;;;;;4934416;28;20413;-49